Time;durP1;ratioP1;P1;durP2;ratioP2;P2;SDS_P1;SDS_P2;PMS_P1;PMS_P2;Temp;Humidity;BMP_temperature;BMP_pressure;BME280_temperature;BME280_humidity;BME280_pressure;Samples;Min_cycle;Max_cycle;Signal;HPM_P1;HPM_P2
2024/04/19 00:01:46;;;;;;;2.47;2.27;;;8.10;1.00;;;;;;5327723;26;20486;-73
2024/04/19 00:04:12;;;;;;;4.00;2.30;;;8.00;1.00;;;;;;5346989;26;20525;-74
2024/04/19 00:06:41;;;;;;;3.80;2.70;;;8.00;1.00;;;;;;5328284;26;20654;-73
2024/04/19 00:09:07;;;;;;;5.78;2.88;;;8.00;1.00;;;;;;5314845;26;21386;-74
2024/04/19 00:11:35;;;;;;;5.57;2.47;;;8.10;1.00;;;;;;5334456;26;20311;-73
2024/04/19 00:14:01;;;;;;;2.73;2.53;;;8.10;1.00;;;;;;5345526;26;21343;-73
2024/04/19 00:16:36;;;;;;;3.17;2.40;;;8.10;1.00;;;;;;5340796;26;20483;-74
2024/04/19 00:19:02;;;;;;;2.63;2.20;;;8.10;1.00;;;;;;5327858;26;20501;-74
2024/04/19 00:21:31;;;;;;;2.80;2.10;;;8.20;1.00;;;;;;5350900;26;20997;-73
2024/04/19 00:23:57;;;;;;;2.70;2.50;;;8.20;1.00;;;;;;5346749;26;20546;-75
2024/04/19 00:26:27;;;;;;;3.37;2.27;;;8.30;1.00;;;;;;5343162;26;20484;-74
2024/04/19 00:28:53;;;;;;;3.10;2.08;;;8.30;1.00;;;;;;5351584;25;20459;-74
2024/04/19 00:31:23;;;;;;;2.67;2.47;;;8.40;1.00;;;;;;5343397;26;20279;-75
2024/04/19 00:33:52;;;;;;;3.90;3.13;;;8.40;1.00;;;;;;5344086;26;21329;-74
2024/04/19 00:36:20;;;;;;;4.40;2.53;;;8.30;1.00;;;;;;5348953;26;20527;-73
2024/04/19 00:38:47;;;;;;;3.10;2.60;;;8.30;1.00;;;;;;5349097;26;20492;-77
2024/04/19 00:41:15;;;;;;;3.17;2.78;;;8.20;1.00;;;;;;5339784;26;20483;-76
2024/04/19 00:43:43;;;;;;;3.57;2.43;;;8.20;1.00;;;;;;5339272;25;20274;-74
2024/04/19 00:46:12;;;;;;;2.87;2.23;;;8.20;1.00;;;;;;5336012;26;20598;-78
2024/04/19 00:48:40;;;;;;;2.37;2.17;;;8.20;1.00;;;;;;5344137;26;20590;-75
2024/04/19 00:51:11;;;;;;;2.47;2.17;;;8.30;1.00;;;;;;5347210;26;20487;-73
2024/04/19 00:53:38;;;;;;;3.43;2.40;;;8.30;1.00;;;;;;5348234;26;20492;-73
2024/04/19 00:56:07;;;;;;;4.10;2.20;;;8.30;1.00;;;;;;5345318;26;20483;-73
2024/04/19 00:58:34;;;;;;;3.10;2.60;;;8.30;1.00;;;;;;5312825;26;20527;-77
2024/04/19 01:01:06;;;;;;;3.10;2.70;;;8.20;1.00;;;;;;5336291;26;20524;-74
2024/04/19 01:03:35;;;;;;;4.27;2.40;;;8.10;1.00;;;;;;5334376;26;20627;-75
2024/04/19 01:06:01;;;;;;;3.47;2.30;;;8.00;1.00;;;;;;5350098;26;20497;-74
2024/04/19 01:08:33;;;;;;;2.70;2.27;;;8.00;1.00;;;;;;5343019;26;20496;-74
2024/04/19 01:10:59;;;;;;;2.43;2.17;;;8.00;1.00;;;;;;5336839;26;20501;-74
2024/04/19 01:13:29;;;;;;;2.97;2.30;;;8.10;1.00;;;;;;5355889;26;20513;-75
2024/04/19 01:15:56;;;;;;;2.50;2.30;;;8.10;1.00;;;;;;5354356;26;20548;-74
2024/04/19 01:18:25;;;;;;;6.28;3.38;;;8.10;1.00;;;;;;5339627;26;20487;-74
2024/04/19 01:20:52;;;;;;;4.03;2.33;;;8.10;1.00;;;;;;5342567;26;20275;-74
2024/04/19 01:23:23;;;;;;;5.33;2.90;;;8.10;1.00;;;;;;5321405;26;20585;-73
2024/04/19 01:25:53;;;;;;;3.63;2.70;;;8.10;1.00;;;;;;5303525;26;21396;-75
2024/04/19 01:28:31;;;;;;;4.20;3.10;;;8.10;1.00;;;;;;5309820;26;20489;-78
2024/04/19 01:30:58;;;;;;;4.70;2.67;;;8.10;1.00;;;;;;5305766;26;20480;-74
2024/04/19 01:33:27;;;;;;;5.10;2.10;;;8.10;1.00;;;;;;5322455;26;20559;-75
2024/04/19 01:35:53;;;;;;;3.23;2.17;;;8.00;1.00;;;;;;5315105;26;21030;-75
2024/04/19 01:38:22;;;;;;;2.63;1.93;;;8.00;1.00;;;;;;5343468;26;20498;-75
2024/04/19 01:40:47;;;;;;;2.70;2.30;;;8.00;1.00;;;;;;5347813;26;20492;-75
2024/04/19 01:43:16;;;;;;;3.60;2.43;;;8.00;1.00;;;;;;5343091;26;20572;-75
2024/04/19 01:45:44;;;;;;;4.83;2.67;;;8.00;1.00;;;;;;5320273;26;20515;-73
2024/04/19 01:48:15;;;;;;;3.80;2.53;;;8.00;1.00;;;;;;5341114;26;20622;-75
2024/04/19 01:50:41;;;;;;;3.93;2.40;;;7.90;1.00;;;;;;5350826;26;20544;-76
2024/04/19 01:53:10;;;;;;;6.03;2.13;;;7.90;1.00;;;;;;5339468;26;20502;-74
2024/04/19 01:55:38;;;;;;;6.10;2.83;;;7.80;1.00;;;;;;5309136;26;20496;-73
2024/04/19 01:58:07;;;;;;;4.07;2.77;;;7.80;1.00;;;;;;5309922;26;21107;-75
2024/04/19 02:00:33;;;;;;;3.93;2.73;;;7.70;1.00;;;;;;5306546;26;23926;-74
2024/04/19 02:03:05;;;;;;;4.43;2.47;;;7.70;1.00;;;;;;5332725;26;20498;-74
2024/04/19 02:05:31;;;;;;;4.23;2.57;;;7.60;1.00;;;;;;5343693;26;21560;-74
2024/04/19 02:08:00;;;;;;;4.45;2.05;;;7.60;1.00;;;;;;5329775;26;20492;-72
2024/04/19 02:10:29;;;;;;;4.17;2.67;;;7.60;1.00;;;;;;5341846;26;20277;-73
2024/04/19 02:12:55;;;;;;;3.80;2.30;;;7.60;1.00;;;;;;5350574;26;20531;-74
2024/04/19 02:15:25;;;;;;;8.50;3.00;;;7.60;1.00;;;;;;5343061;26;20288;-75
2024/04/19 02:17:54;;;;;;;5.45;2.75;;;7.50;1.00;;;;;;5345647;26;21205;-73
2024/04/19 02:20:22;;;;;;;4.17;2.33;;;7.50;1.00;;;;;;5311880;26;22298;-74
2024/04/19 02:22:51;;;;;;;5.30;2.40;;;7.50;1.00;;;;;;5338732;25;20577;-74
2024/04/19 02:25:18;;;;;;;5.77;2.60;;;7.50;1.00;;;;;;5344606;26;21064;-75
2024/04/19 02:33:16;;;;;;;5.07;2.87;;;7.40;1.00;;;;;;5311230;26;20280;-72
2024/04/19 02:35:47;;;;;;;4.87;2.63;;;7.30;1.00;;;;;;5319244;26;20926;-74
2024/04/19 02:38:15;;;;;;;4.80;2.88;;;7.30;1.00;;;;;;5316607;26;20492;-73
2024/04/19 02:40:44;;;;;;;4.50;2.97;;;7.30;1.00;;;;;;5311242;26;20272;-72
2024/04/19 02:43:12;;;;;;;5.37;3.50;;;7.30;1.00;;;;;;5337056;26;21423;-72
2024/04/19 02:45:42;;;;;;;2.70;2.50;;;7.30;1.00;;;;;;5343667;26;20546;-71
2024/04/19 02:48:11;;;;;;;2.88;2.67;;;7.30;1.00;;;;;;5323327;26;21010;-73
2024/04/19 02:50:41;;;;;;;3.40;2.90;;;7.30;1.00;;;;;;5332249;26;20306;-73
2024/04/19 02:53:12;;;;;;;3.20;2.90;;;7.40;1.00;;;;;;5350200;26;20488;-71
2024/04/19 02:55:40;;;;;;;2.97;2.67;;;7.30;1.00;;;;;;5348551;26;20525;-71
2024/04/19 02:58:09;;;;;;;3.40;2.80;;;7.30;1.00;;;;;;5325592;26;20552;-71
2024/04/19 03:00:39;;;;;;;6.13;4.10;;;7.20;1.00;;;;;;5348425;26;20549;-71
2024/04/19 03:03:07;;;;;;;4.28;2.78;;;7.20;1.00;;;;;;5339244;26;21019;-72
2024/04/19 03:05:36;;;;;;;3.05;2.33;;;7.20;1.00;;;;;;5344569;26;20289;-73
2024/04/19 03:08:05;;;;;;;6.18;3.05;;;7.20;1.00;;;;;;5349969;26;20322;-71
2024/04/19 03:10:41;;;;;;;3.47;3.17;;;7.20;1.00;;;;;;5347047;26;20275;-74
2024/04/19 03:13:09;;;;;;;3.85;2.90;;;7.20;1.00;;;;;;5349424;26;20486;-72
2024/04/19 03:15:38;;;;;;;5.03;3.15;;;7.20;1.00;;;;;;5345393;26;21282;-73
2024/04/19 03:18:07;;;;;;;3.77;2.87;;;7.20;1.00;;;;;;5343671;26;20266;-72
2024/04/19 03:20:36;;;;;;;4.05;3.20;;;7.20;1.00;;;;;;5344853;26;20616;-72
2024/04/19 03:23:05;;;;;;;5.30;3.40;;;7.10;1.00;;;;;;5345946;26;20295;-71
2024/04/19 03:25:38;;;;;;;8.35;3.83;;;7.20;1.00;;;;;;5343349;26;20481;-72
2024/04/19 03:28:07;;;;;;;5.97;3.80;;;7.30;1.00;;;;;;5343627;26;20266;-73
2024/04/19 03:30:36;;;;;;;3.10;2.83;;;7.30;1.00;;;;;;5323707;26;20624;-70
2024/04/19 03:33:05;;;;;;;3.38;3.00;;;7.30;1.00;;;;;;5348362;26;20498;-74
2024/04/19 03:35:34;;;;;;;5.72;3.35;;;7.30;1.00;;;;;;5342795;25;20274;-74
2024/04/19 03:38:02;;;;;;;6.93;3.22;;;7.30;1.00;;;;;;5349206;26;20372;-72
2024/04/19 03:40:31;;;;;;;7.43;2.63;;;7.30;1.00;;;;;;5345352;26;21703;-72
2024/04/19 03:43:02;;;;;;;3.33;3.03;;;7.30;1.00;;;;;;5335762;26;20478;-72
2024/04/19 03:45:44;;;;;;;4.07;3.00;;;7.20;1.00;;;;;;5303055;26;20264;-72
2024/04/19 03:48:14;;;;;;;5.60;2.92;;;7.30;1.00;;;;;;5307765;26;20525;-72
2024/04/19 03:50:46;;;;;;;5.45;2.90;;;7.20;1.00;;;;;;5311620;26;21287;-74
2024/04/19 03:53:15;;;;;;;7.93;3.30;;;7.20;1.00;;;;;;5307350;26;20358;-72
2024/04/19 03:55:43;;;;;;;5.37;3.27;;;7.20;1.00;;;;;;5304838;26;20302;-73
2024/04/19 03:58:17;;;;;;;5.13;2.80;;;7.20;1.00;;;;;;5308627;26;21023;-76
2024/04/19 04:00:48;;;;;;;3.93;2.53;;;7.20;1.00;;;;;;5298366;26;20495;-72
2024/04/19 04:03:17;;;;;;;5.50;3.70;;;7.20;1.00;;;;;;5303442;26;20486;-73
2024/04/19 04:05:52;;;;;;;5.83;4.03;;;7.10;1.00;;;;;;5308850;26;22963;-75
2024/04/19 04:08:20;;;;;;;3.40;3.10;;;7.20;1.00;;;;;;5300339;26;21428;-73
2024/04/19 04:10:49;;;;;;;3.73;2.73;;;7.20;1.00;;;;;;5301901;26;20279;-74
2024/04/19 04:13:20;;;;;;;4.23;3.23;;;7.30;1.00;;;;;;5307455;26;21197;-74
2024/04/19 04:15:49;;;;;;;5.70;3.60;;;7.30;1.00;;;;;;5299290;26;20500;-74
2024/04/19 04:18:18;;;;;;;6.43;4.23;;;7.30;1.00;;;;;;5301401;26;21982;-72
2024/04/19 04:20:47;;;;;;;4.13;3.20;;;7.20;1.00;;;;;;5344889;26;20489;-76
2024/04/19 04:23:17;;;;;;;4.20;3.30;;;7.30;1.00;;;;;;5329408;26;20540;-73
2024/04/19 04:25:46;;;;;;;7.97;5.10;;;7.30;1.00;;;;;;5330399;26;21025;-73
2024/04/19 04:28:14;;;;;;;4.20;3.43;;;7.40;1.00;;;;;;5305921;26;20538;-73
2024/04/19 04:30:46;;;;;;;6.05;3.40;;;7.40;1.00;;;;;;5314117;26;20503;-74
2024/04/19 04:33:14;;;;;;;4.35;3.75;;;7.40;1.00;;;;;;5304915;26;21121;-75
2024/04/19 04:35:43;;;;;;;7.05;3.85;;;7.40;1.00;;;;;;5311686;26;20289;-73
2024/04/19 04:38:11;;;;;;;6.95;4.00;;;7.50;1.00;;;;;;5312216;26;20264;-72
2024/04/19 04:40:40;;;;;;;8.30;4.80;;;7.40;1.00;;;;;;5312801;26;20276;-74
2024/04/19 04:43:09;;;;;;;9.40;6.73;;;7.50;1.00;;;;;;5318553;26;20260;-72
2024/04/19 04:45:38;;;;;;;9.47;4.30;;;7.50;1.00;;;;;;5340356;26;20487;-75
2024/04/19 04:48:10;;;;;;;4.18;3.80;;;7.60;1.00;;;;;;5355278;26;20490;-73
2024/04/19 04:50:37;;;;;;;3.67;3.38;;;7.60;1.00;;;;;;5327596;26;20842;-74
2024/04/19 04:53:06;;;;;;;8.20;4.97;;;7.70;1.00;;;;;;5334542;26;20864;-74
2024/04/19 04:55:35;;;;;;;6.07;4.10;;;7.80;1.00;;;;;;5337984;26;21414;-74
2024/04/19 04:58:05;;;;;;;6.03;4.10;;;7.80;1.00;;;;;;5337076;26;20479;-74
2024/04/19 05:00:34;;;;;;;7.30;4.17;;;7.90;1.00;;;;;;5335254;26;21516;-72
2024/04/19 05:03:05;;;;;;;5.33;4.47;;;8.00;1.00;;;;;;5321298;26;20644;-73
2024/04/19 05:05:34;;;;;;;4.80;4.37;;;8.10;1.00;;;;;;5302064;26;21057;-73
2024/04/19 05:08:02;;;;;;;4.50;3.73;;;8.10;1.00;;;;;;5310041;26;21054;-74
2024/04/19 05:10:31;;;;;;;5.40;3.73;;;8.10;1.00;;;;;;5304366;26;20516;-73
2024/04/19 05:13:00;;;;;;;7.80;4.33;;;7.90;1.00;;;;;;5304161;26;20624;-72
2024/04/19 05:15:29;;;;;;;4.40;4.00;;;7.90;1.00;;;;;;5305404;26;20488;-73
2024/04/19 05:17:57;;;;;;;6.47;4.57;;;7.80;1.00;;;;;;5330301;26;20497;-72
2024/04/19 05:20:26;;;;;;;5.30;4.27;;;7.70;1.00;;;;;;5337995;26;20541;-73
2024/04/19 05:22:58;;;;;;;6.17;5.67;;;7.60;1.00;;;;;;5335858;26;21000;-71
2024/04/19 05:25:26;;;;;;;6.17;4.50;;;7.60;1.00;;;;;;5329465;26;21000;-72
2024/04/19 05:27:55;;;;;;;9.15;4.63;;;7.50;1.00;;;;;;5341520;26;20487;-71
2024/04/19 05:30:27;;;;;;;7.20;5.13;;;7.40;1.00;;;;;;5336159;26;20797;-71
2024/04/19 05:32:56;;;;;;;5.67;4.83;;;7.30;1.00;;;;;;5313197;26;20760;-72
2024/04/19 05:35:26;;;;;;;6.22;3.90;;;7.30;1.00;;;;;;5306194;26;20484;-73
2024/04/19 05:37:58;;;;;;;8.18;5.95;;;7.30;1.00;;;;;;5327123;26;20513;-72
2024/04/19 05:40:27;;;;;;;6.28;5.75;;;7.40;1.00;;;;;;5331093;26;20288;-71
2024/04/19 05:42:55;;;;;;;7.13;5.33;;;7.50;1.00;;;;;;5306402;26;20858;-71
2024/04/19 05:45:24;;;;;;;6.73;5.77;;;7.60;1.00;;;;;;5331248;26;20531;-70
2024/04/19 05:47:53;;;;;;;9.02;6.18;;;7.50;1.00;;;;;;5333113;25;20655;-74
2024/04/19 05:50:25;;;;;;;7.50;6.37;;;7.50;1.00;;;;;;5337917;25;20280;-72
2024/04/19 05:52:54;;;;;;;6.27;5.60;;;7.60;1.00;;;;;;5339293;26;20495;-73
2024/04/19 05:55:25;;;;;;;6.90;6.22;;;7.70;1.00;;;;;;5337852;26;20984;-76
2024/04/19 05:57:53;;;;;;;7.93;6.65;;;7.80;1.00;;;;;;5334213;25;20267;-77
2024/04/19 06:00:22;;;;;;;7.03;6.27;;;7.90;1.00;;;;;;5336825;26;20687;-72
2024/04/19 06:02:51;;;;;;;7.13;5.60;;;8.00;1.00;;;;;;5335360;26;20475;-71
2024/04/19 06:05:20;;;;;;;6.33;5.57;;;7.90;1.00;;;;;;5347744;25;20596;-73
2024/04/19 06:07:49;;;;;;;8.43;7.10;;;7.90;1.00;;;;;;5331948;26;20881;-73
2024/04/19 06:10:18;;;;;;;8.20;6.77;;;7.90;1.00;;;;;;5339980;26;20878;-73
2024/04/19 06:12:49;;;;;;;7.53;6.55;;;8.00;1.00;;;;;;5335317;26;20864;-74
2024/04/19 06:15:18;;;;;;;6.80;6.10;;;7.90;1.00;;;;;;5336044;26;20263;-74
2024/04/19 06:17:46;;;;;;;7.53;6.10;;;7.80;1.00;;;;;;5340213;26;21079;-72
2024/04/19 06:20:15;;;;;;;6.45;5.85;;;7.80;1.00;;;;;;5339403;26;20306;-72
2024/04/19 06:22:43;;;;;;;6.20;5.60;;;7.60;1.00;;;;;;5339014;26;20296;-71
2024/04/19 06:25:12;;;;;;;6.90;6.20;;;7.70;1.00;;;;;;5336247;25;20265;-71
2024/04/19 06:27:40;;;;;;;9.70;5.38;;;7.70;1.00;;;;;;5338221;26;20596;-71
2024/04/19 06:30:13;;;;;;;9.73;5.73;;;7.60;1.00;;;;;;5384621;26;20274;-72
2024/04/19 06:32:39;;;;;;;6.07;5.47;;;7.40;1.00;;;;;;5341215;26;20491;-72
2024/04/19 06:35:14;;;;;;;6.77;5.67;;;7.40;1.00;;;;;;5338161;26;20293;-73
2024/04/19 06:37:43;;;;;;;6.00;5.50;;;7.40;1.00;;;;;;5340669;26;20497;-73
2024/04/19 06:40:12;;;;;;;6.15;4.55;;;7.40;1.00;;;;;;5345477;25;20299;-71
2024/04/19 06:42:40;;;;;;;5.90;5.40;;;7.30;1.00;;;;;;5337591;26;21050;-72
2024/04/19 06:45:12;;;;;;;5.75;5.15;;;7.20;1.00;;;;;;5340728;25;20324;-72
2024/04/19 06:47:40;;;;;;;6.47;5.82;;;7.10;1.00;;;;;;5329833;26;20786;-70
2024/04/19 06:50:09;;;;;;;6.70;6.10;;;7.00;1.00;;;;;;5305147;26;20275;-71
2024/04/19 06:52:38;;;;;;;7.32;6.38;;;6.90;1.00;;;;;;5330652;26;20260;-73
2024/04/19 06:55:07;;;;;;;6.78;6.22;;;6.80;1.00;;;;;;5346741;26;20287;-72
2024/04/19 06:57:36;;;;;;;6.88;6.20;;;6.70;1.00;;;;;;5358262;26;20289;-72
2024/04/19 07:00:08;;;;;;;12.55;11.25;;;6.60;1.00;;;;;;5298284;26;20307;-73
2024/04/19 07:02:50;;;;;;;8.40;7.15;;;6.60;1.00;;;;;;5333139;26;20296;-73
2024/04/19 07:05:20;;;;;;;7.30;6.70;;;6.50;1.00;;;;;;5342322;26;20261;-73
2024/04/19 07:07:50;;;;;;;7.43;6.45;;;6.50;1.00;;;;;;5342331;26;20262;-74
2024/04/19 07:10:22;;;;;;;7.18;6.05;;;6.50;1.00;;;;;;5340033;26;20284;-72
2024/04/19 07:12:51;;;;;;;7.53;6.05;;;6.50;1.00;;;;;;5319336;26;20324;-74
2024/04/19 07:15:20;;;;;;;6.53;5.15;;;6.40;1.00;;;;;;5317191;26;20682;-76
2024/04/19 07:17:55;;;;;;;5.68;5.10;;;6.40;1.00;;;;;;5343093;26;20261;-72
2024/04/19 07:20:24;;;;;;;6.35;5.45;;;6.30;1.00;;;;;;5344153;26;23226;-74
2024/04/19 07:22:55;;;;;;;5.57;4.88;;;6.30;1.00;;;;;;5343087;26;20261;-74
2024/04/19 07:25:25;;;;;;;6.15;5.57;;;6.20;1.00;;;;;;5341260;26;20269;-73
2024/04/19 07:27:53;;;;;;;5.60;5.07;;;6.10;1.00;;;;;;5342510;26;20263;-72
2024/04/19 07:30:24;;;;;;;5.30;4.80;;;6.10;1.00;;;;;;5334831;26;20303;-71
2024/04/19 07:32:55;;;;;;;5.70;5.20;;;6.20;1.00;;;;;;5332076;26;21116;-73
2024/04/19 07:35:24;;;;;;;8.40;5.45;;;6.30;1.00;;;;;;5307318;26;20281;-70
2024/04/19 07:37:55;;;;;;;6.05;5.32;;;6.50;1.00;;;;;;5299806;26;20287;-70
2024/04/19 07:40:26;;;;;;;6.67;5.10;;;6.60;1.00;;;;;;5302231;26;20281;-70
2024/04/19 07:42:54;;;;;;;7.75;5.35;;;6.70;1.00;;;;;;5312343;26;20562;-72
2024/04/19 07:45:23;;;;;;;6.10;5.50;;;6.60;1.00;;;;;;5293846;26;20263;-69
2024/04/19 07:47:55;;;;;;;7.35;5.57;;;6.70;1.00;;;;;;5307283;26;21157;-70
2024/04/19 07:50:23;;;;;;;6.50;5.90;;;6.90;1.00;;;;;;5305052;26;20277;-73
2024/04/19 07:52:52;;;;;;;7.20;4.80;;;7.00;1.00;;;;;;5332843;26;22139;-72
2024/04/19 07:55:21;;;;;;;6.03;5.47;;;7.10;1.00;;;;;;5339588;26;20541;-71
2024/04/19 07:57:50;;;;;;;5.65;5.10;;;7.20;1.00;;;;;;5345464;26;20482;-72
2024/04/19 08:00:21;;;;;;;6.67;5.60;;;7.20;1.00;;;;;;5342942;26;20280;-74
2024/04/19 08:02:50;;;;;;;7.68;5.50;;;7.00;1.00;;;;;;5338672;26;20631;-72
2024/04/19 08:05:22;;;;;;;6.63;5.50;;;6.90;1.00;;;;;;5325758;26;20281;-71
2024/04/19 08:07:54;;;;;;;5.28;4.78;;;6.90;1.00;;;;;;5323581;26;20409;-72
2024/04/19 08:10:24;;;;;;;5.80;5.30;;;6.80;1.00;;;;;;5339181;26;21242;-71
2024/04/19 08:12:52;;;;;;;7.32;5.60;;;6.70;1.00;;;;;;5336735;26;20482;-70
2024/04/19 08:15:21;;;;;;;5.68;5.10;;;6.60;1.00;;;;;;5316158;26;20292;-71
2024/04/19 08:17:50;;;;;;;8.23;5.55;;;6.50;1.00;;;;;;5305758;26;20263;-70
2024/04/19 08:20:22;;;;;;;6.13;5.63;;;6.40;1.00;;;;;;5310371;26;20278;-73
2024/04/19 08:22:50;;;;;;;6.70;6.00;;;6.40;1.00;;;;;;5306921;26;20283;-70
2024/04/19 08:25:19;;;;;;;6.70;6.07;;;6.50;1.00;;;;;;5301140;26;20270;-69
2024/04/19 08:27:48;;;;;;;6.85;6.18;;;6.40;1.00;;;;;;5307082;26;20316;-72
2024/04/19 08:30:16;;;;;;;6.88;5.78;;;6.40;1.00;;;;;;5330535;26;20273;-70
2024/04/19 08:32:45;;;;;;;7.57;6.78;;;6.40;1.00;;;;;;5341402;26;20273;-70
2024/04/19 08:35:11;;;;;;;7.75;6.80;;;6.40;1.00;;;;;;5313530;26;20283;-71
2024/04/19 08:37:42;;;;;;;13.53;11.63;;;6.40;1.00;;;;;;5340588;26;20288;-72
2024/04/19 08:40:13;;;;;;;8.73;7.82;;;6.40;1.00;;;;;;5337043;26;20552;-73
2024/04/19 08:42:42;;;;;;;7.43;6.70;;;6.50;1.00;;;;;;5332905;26;20308;-72
2024/04/19 08:45:16;;;;;;;7.72;6.93;;;6.50;1.00;;;;;;5340834;26;20282;-76
2024/04/19 08:47:48;;;;;;;8.13;7.43;;;6.70;1.00;;;;;;5316099;26;21209;-76
2024/04/19 08:50:17;;;;;;;7.25;6.55;;;6.70;1.00;;;;;;5345261;26;20925;-75
2024/04/19 08:52:50;;;;;;;8.15;7.40;;;6.70;1.00;;;;;;5338339;26;21277;-75
2024/04/19 08:55:20;;;;;;;8.90;7.90;;;6.70;1.00;;;;;;5340306;25;20296;-75
2024/04/19 08:57:49;;;;;;;7.97;7.28;;;6.80;1.00;;;;;;5338556;26;20270;-74
2024/04/19 09:00:18;;;;;;;10.38;7.88;;;6.90;1.00;;;;;;5342667;26;20278;-73
2024/04/19 09:02:46;;;;;;;13.73;8.60;;;7.10;1.00;;;;;;5343490;25;20292;-74
2024/04/19 09:05:15;;;;;;;8.30;7.60;;;7.10;1.00;;;;;;5340184;26;20266;-73
2024/04/19 09:07:43;;;;;;;9.18;8.27;;;7.10;1.00;;;;;;5340659;26;20264;-74
2024/04/19 09:10:16;;;;;;;9.85;8.27;;;7.20;1.00;;;;;;5342810;25;20277;-73
2024/04/19 09:12:44;;;;;;;10.65;9.48;;;7.10;1.00;;;;;;5335614;26;20700;-73
2024/04/19 09:15:13;;;;;;;9.27;8.37;;;7.10;1.00;;;;;;5339178;25;21096;-72
2024/04/19 09:17:42;;;;;;;10.55;8.15;;;7.20;1.00;;;;;;5340200;25;22681;-72
2024/04/19 09:20:11;;;;;;;8.70;7.90;;;7.20;1.00;;;;;;5342939;26;20277;-72
2024/04/19 09:22:40;;;;;;;9.27;7.97;;;7.10;1.00;;;;;;5341269;25;20566;-76
2024/04/19 09:25:09;;;;;;;8.38;7.68;;;7.10;1.00;;;;;;5339280;26;20293;-74
2024/04/19 09:27:41;;;;;;;9.00;8.10;;;6.90;1.00;;;;;;5338912;26;20285;-72
2024/04/19 09:30:12;;;;;;;8.80;8.10;;;6.90;1.00;;;;;;5334766;25;20283;-75
2024/04/19 09:32:41;;;;;;;10.27;9.27;;;7.00;1.00;;;;;;5338185;26;20256;-72
2024/04/19 09:35:10;;;;;;;11.77;10.68;;;7.10;1.00;;;;;;5328383;26;20484;-72
2024/04/19 09:37:42;;;;;;;9.38;8.55;;;7.20;1.00;;;;;;5335428;26;20262;-72
2024/04/19 09:40:11;;;;;;;9.10;8.27;;;7.20;1.00;;;;;;5336845;26;20329;-74
2024/04/19 09:42:48;;;;;;;8.52;7.82;;;7.30;1.00;;;;;;5332830;26;20412;-73
2024/04/19 09:45:18;;;;;;;8.23;7.43;;;7.30;1.00;;;;;;5339591;26;20307;-71
2024/04/19 09:47:51;;;;;;;8.85;7.82;;;7.20;1.00;;;;;;5336347;26;20498;-71
2024/04/19 09:50:21;;;;;;;10.20;8.70;;;7.30;1.00;;;;;;5320718;26;20811;-72
2024/04/19 09:52:56;;;;;;;8.43;7.63;;;7.30;1.00;;;;;;5346181;26;20493;-71
2024/04/19 09:55:35;;;;;;;10.23;9.23;;;7.40;1.00;;;;;;5319283;26;20276;-71
2024/04/19 09:58:07;;;;;;;13.13;11.75;;;7.40;1.00;;;;;;5311450;26;21345;-76
2024/04/19 10:00:36;;;;;;;7.93;7.20;;;7.50;1.00;;;;;;5336431;26;20299;-71
2024/04/19 10:03:10;;;;;;;6.85;6.25;;;7.30;1.00;;;;;;5336746;26;20489;-71
2024/04/19 10:05:39;;;;;;;6.95;6.30;;;7.30;1.00;;;;;;5326503;26;20304;-72
2024/04/19 10:08:09;;;;;;;7.57;6.88;;;7.30;1.00;;;;;;5337158;26;20274;-70
2024/04/19 10:10:38;;;;;;;7.15;6.45;;;7.20;1.00;;;;;;5336614;26;20267;-72
2024/04/19 10:13:09;;;;;;;6.63;6.03;;;7.20;1.00;;;;;;5342752;26;20262;-71
2024/04/19 10:15:39;;;;;;;6.60;6.05;;;7.00;1.00;;;;;;5333929;26;20301;-71
2024/04/19 10:18:08;;;;;;;6.95;6.30;;;7.00;1.00;;;;;;5336464;26;20288;-73
2024/04/19 10:20:40;;;;;;;7.45;6.85;;;7.10;1.00;;;;;;5328915;26;20301;-71
2024/04/19 10:23:13;;;;;;;5.77;5.30;;;7.10;1.00;;;;;;5325615;26;20738;-71
2024/04/19 10:25:42;;;;;;;6.13;5.32;;;7.10;1.00;;;;;;5330836;26;21062;-69
2024/04/19 10:28:14;;;;;;;6.35;5.03;;;7.00;1.00;;;;;;5336258;26;21248;-71
2024/04/19 10:30:46;;;;;;;4.73;4.40;;;7.00;1.00;;;;;;5337259;26;20696;-71
2024/04/19 10:33:15;;;;;;;5.40;4.97;;;6.90;1.00;;;;;;5332038;26;20488;-71
2024/04/19 10:35:45;;;;;;;6.10;5.50;;;6.70;1.00;;;;;;5323236;26;20266;-70
2024/04/19 10:38:14;;;;;;;4.78;4.38;;;6.80;1.00;;;;;;5337744;26;20741;-72
2024/04/19 10:40:45;;;;;;;5.55;4.45;;;6.80;1.00;;;;;;5321967;26;20307;-72
2024/04/19 10:43:16;;;;;;;4.70;4.30;;;6.90;1.00;;;;;;5325366;26;20304;-69
2024/04/19 10:45:47;;;;;;;5.13;4.70;;;6.90;1.00;;;;;;5311643;26;20303;-70
2024/04/19 10:48:20;;;;;;;4.15;3.85;;;7.00;1.00;;;;;;5330011;26;20283;-70
2024/04/19 10:50:49;;;;;;;7.10;6.40;;;7.00;1.00;;;;;;5304900;26;20766;-71
2024/04/19 10:53:20;;;;;;;5.00;4.60;;;7.10;1.00;;;;;;5303047;26;20270;-71
2024/04/19 10:55:49;;;;;;;4.60;4.20;;;7.10;1.00;;;;;;5319758;26;20261;-73
2024/04/19 10:58:21;;;;;;;9.70;8.68;;;7.10;1.00;;;;;;5323373;26;20309;-73
2024/04/19 11:00:50;;;;;;;5.13;4.63;;;7.20;1.00;;;;;;5320710;26;20304;-73
2024/04/19 11:03:19;;;;;;;5.63;5.13;;;7.20;1.00;;;;;;5340392;26;20759;-71
2024/04/19 11:05:48;;;;;;;4.25;3.85;;;7.20;1.00;;;;;;5335379;26;20319;-72
2024/04/19 11:08:17;;;;;;;3.75;3.45;;;7.20;1.00;;;;;;5341478;26;20705;-73
2024/04/19 11:10:46;;;;;;;4.10;3.70;;;7.20;1.00;;;;;;5335377;26;20834;-71
2024/04/19 11:13:15;;;;;;;3.00;2.80;;;7.20;1.00;;;;;;5352856;26;20289;-72
2024/04/19 11:15:47;;;;;;;3.45;3.15;;;7.20;1.00;;;;;;5334126;26;20590;-72
2024/04/19 11:18:15;;;;;;;3.10;2.80;;;7.20;1.00;;;;;;5307819;26;20270;-72
2024/04/19 11:20:44;;;;;;;2.60;2.40;;;7.10;1.00;;;;;;5312847;26;20297;-72
2024/04/19 11:23:12;;;;;;;4.05;3.08;;;7.10;1.00;;;;;;5308456;26;20542;-73
2024/04/19 11:25:41;;;;;;;2.30;2.15;;;7.00;1.00;;;;;;5309797;26;20268;-71
2024/04/19 11:28:10;;;;;;;2.63;2.05;;;7.00;1.00;;;;;;5312292;26;20409;-72
2024/04/19 11:30:40;;;;;;;2.00;1.80;;;7.00;1.00;;;;;;5345629;26;20401;-72
2024/04/19 11:33:13;;;;;;;1.85;1.30;;;6.90;1.00;;;;;;5339435;26;20288;-73
2024/04/19 11:35:43;;;;;;;1.40;1.15;;;6.80;1.00;;;;;;5343219;26;20324;-72
2024/04/19 11:38:15;;;;;;;2.03;1.10;;;6.60;1.00;;;;;;5383906;26;20761;-71
2024/04/19 11:40:44;;;;;;;2.20;1.25;;;6.50;1.00;;;;;;5339068;26;21101;-72
2024/04/19 11:43:13;;;;;;;1.02;0.90;;;6.30;1.00;;;;;;5338972;26;20268;-72
2024/04/19 11:45:46;;;;;;;2.35;1.20;;;6.20;1.00;;;;;;5344530;26;20400;-72
2024/04/19 11:48:25;;;;;;;2.03;1.75;;;6.20;1.00;;;;;;5344958;26;21158;-71
2024/04/19 11:50:55;;;;;;;2.92;1.42;;;6.20;1.00;;;;;;5340134;26;20276;-71
2024/04/19 11:53:24;;;;;;;1.77;1.50;;;6.20;1.00;;;;;;5349097;26;20270;-71
2024/04/19 11:55:54;;;;;;;4.38;1.70;;;6.30;1.00;;;;;;5354481;25;20797;-73
2024/04/19 11:58:20;;;;;;;2.60;1.63;;;6.40;1.00;;;;;;5348801;26;20340;-71
2024/04/19 12:00:50;;;;;;;3.40;1.90;;;6.50;1.00;;;;;;5352908;25;20644;-72
2024/04/19 12:03:22;;;;;;;2.28;1.83;;;6.50;1.00;;;;;;5352246;25;20285;-72
2024/04/19 12:05:50;;;;;;;1.55;1.30;;;6.60;1.00;;;;;;5349061;25;20260;-71
2024/04/19 12:08:19;;;;;;;2.08;1.88;;;6.60;1.00;;;;;;5339385;26;20364;-71
2024/04/19 12:10:47;;;;;;;2.40;2.20;;;6.50;1.00;;;;;;5342475;26;20296;-71
2024/04/19 12:13:16;;;;;;;4.18;2.20;;;6.50;1.00;;;;;;5343549;26;20320;-70
2024/04/19 12:15:44;;;;;;;1.70;1.60;;;6.50;1.00;;;;;;5336400;26;20276;-71
2024/04/19 12:18:13;;;;;;;2.15;1.90;;;6.40;1.00;;;;;;5329860;26;21143;-71
2024/04/19 12:20:44;;;;;;;1.73;1.63;;;6.40;1.00;;;;;;5340387;26;20359;-70
2024/04/19 12:23:13;;;;;;;2.00;1.90;;;6.30;1.00;;;;;;5340789;26;20837;-72
2024/04/19 12:25:41;;;;;;;1.80;1.70;;;6.30;1.00;;;;;;5334819;26;20908;-71
2024/04/19 12:28:10;;;;;;;3.00;1.60;;;6.30;1.00;;;;;;5332906;26;20288;-72
2024/04/19 12:30:39;;;;;;;2.25;2.05;;;6.40;1.00;;;;;;5333306;26;20889;-76
2024/04/19 12:33:08;;;;;;;1.45;1.35;;;6.30;1.00;;;;;;5340479;26;20417;-70
2024/04/19 12:35:36;;;;;;;1.40;1.30;;;6.30;1.00;;;;;;5347090;26;20272;-70
2024/04/19 12:38:08;;;;;;;2.85;1.60;;;6.20;1.00;;;;;;5344057;26;20759;-71
2024/04/19 12:40:36;;;;;;;2.83;1.30;;;6.20;1.00;;;;;;5307499;26;20282;-71
2024/04/19 12:43:05;;;;;;;1.88;1.77;;;6.10;1.00;;;;;;5313630;26;20271;-70
2024/04/19 12:45:34;;;;;;;1.45;1.35;;;6.10;1.00;;;;;;5312428;26;20257;-69
2024/04/19 12:48:06;;;;;;;2.70;1.55;;;6.10;1.00;;;;;;5333383;26;21164;-70
2024/04/19 12:50:35;;;;;;;3.22;2.40;;;6.20;1.00;;;;;;5320404;26;20394;-68
2024/04/19 12:53:03;;;;;;;2.95;2.10;;;6.20;1.00;;;;;;5316785;26;21085;-69
2024/04/19 12:55:36;;;;;;;2.22;1.42;;;6.40;1.00;;;;;;5342588;26;20312;-70
2024/04/19 12:58:05;;;;;;;1.80;1.70;;;6.40;1.00;;;;;;5334924;26;21169;-69
2024/04/19 13:00:34;;;;;;;1.60;1.50;;;6.50;1.00;;;;;;5357351;26;20278;-69
2024/04/19 13:03:02;;;;;;;1.88;1.75;;;6.50;1.00;;;;;;5309277;26;20802;-70
2024/04/19 13:05:31;;;;;;;2.05;1.88;;;6.60;1.00;;;;;;5346317;26;20633;-70
2024/04/19 13:08:00;;;;;;;4.03;2.10;;;6.70;1.00;;;;;;5347516;26;20264;-70
2024/04/19 13:10:28;;;;;;;2.67;1.70;;;6.80;1.00;;;;;;5341935;26;20278;-72
2024/04/19 13:13:00;;;;;;;2.25;2.00;;;7.00;1.00;;;;;;5330258;26;20754;-71
2024/04/19 13:15:29;;;;;;;1.80;1.70;;;7.10;1.00;;;;;;5342277;26;20290;-69
2024/04/19 13:17:57;;;;;;;4.70;2.00;;;7.20;1.00;;;;;;5338027;26;20285;-71
2024/04/19 13:20:26;;;;;;;2.67;2.47;;;7.20;1.00;;;;;;5344846;26;20269;-70
2024/04/19 13:22:54;;;;;;;6.30;5.30;;;7.40;1.00;;;;;;5348201;26;20305;-70
2024/04/19 13:25:23;;;;;;;3.72;3.42;;;7.40;1.00;;;;;;5335823;26;20264;-72